<?xml version="1.0" encoding="utf-8"?>
<gpx  creator="GPX Track Cleaner (peter@danninger.eu, 21.08.2021)"
      version="1.1"
      xmlns="http://www.topografix.com/GPX/1/1"
      xmlns:xsi="http://www.w3.org/2001/XMLSchema-instance"
      xsi:schemaLocation="
        http://www.topografix.com/GPX/1/1                   https://www.topografix.com/GPX/1/1/gpx.xsd
        http://www.garmin.com/xmlschemas/GpxExtensions/v3   https://www8.garmin.com/xmlschemas/GpxExtensionsv3.xsd
        "
      xmlns:gpxx="http://www.garmin.com/xmlschemas/GpxExtensions/v3"
      xmlns:gpxtrx="http://www.garmin.com/xmlschemas/GpxExtensions/v3"
>


  <trk>
    <name>Neue Positionsliste 1</name>
    <cmt>28km weit, 125m rauf, 116m runter</cmt>
    <desc>GPXclean: 188 Trackpunkte, Original Höhenwerte des Tracks</desc>
    <extensions>
      <gpxx:TrackExtension>
        <!--  Black | DarkRed | DarkGreen | DarkYellow | DarkBlue | DarkMagenta | DarkCyan | LightGray |
              DarkGray | Red | Green | Yellow | Blue | Magenta | Cyan | White | Transparent -->
        <gpxx:DisplayColor>Magenta</gpxx:DisplayColor>
      </gpxx:TrackExtension>
    </extensions>
    <trkseg>
      <trkpt lat="49.3178934" lon="-0.3580148">
        <ele>35.1</ele>
        <time>2022-05-04T15:00:00Z</time>
      </trkpt>
      <trkpt lat="49.3179791" lon="-0.3576259">
        <ele>19.1</ele>
        <time>2022-05-04T15:00:28Z</time>
      </trkpt>
      <trkpt lat="49.3189442" lon="-0.3577654">
        <ele>9.4</ele>
        <time>2022-05-04T15:00:53Z</time>
      </trkpt>
      <trkpt lat="49.3195667" lon="-0.3581141">
        <ele>9.1</ele>
        <time>2022-05-04T15:01:11Z</time>
      </trkpt>
      <trkpt lat="49.3203255" lon="-0.35879">
        <ele>8.3</ele>
        <time>2022-05-04T15:01:34Z</time>
      </trkpt>
      <trkpt lat="49.3208395" lon="-0.3594337">
        <ele>7.6</ele>
        <time>2022-05-04T15:01:52Z</time>
      </trkpt>
      <trkpt lat="49.3213849" lon="-0.3603779">
        <ele>7.5</ele>
        <time>2022-05-04T15:02:13Z</time>
      </trkpt>
      <trkpt lat="49.3219584" lon="-0.3616224">
        <ele>8.6</ele>
        <time>2022-05-04T15:02:39Z</time>
      </trkpt>
      <trkpt lat="49.322322" lon="-0.3629313">
        <ele>9.9</ele>
        <time>2022-05-04T15:03:03Z</time>
      </trkpt>
      <trkpt lat="49.3225178" lon="-0.3637682">
        <ele>10.7</ele>
        <time>2022-05-04T15:03:18Z</time>
      </trkpt>
      <trkpt lat="49.322864" lon="-0.3652005">
        <ele>11</ele>
        <time>2022-05-04T15:03:44Z</time>
      </trkpt>
      <trkpt lat="49.323315" lon="-0.3675232">
        <ele>11.3</ele>
        <time>2022-05-04T15:04:22Z</time>
      </trkpt>
      <trkpt lat="49.3235668" lon="-0.368875">
        <ele>11.8</ele>
        <time>2022-05-04T15:04:45Z</time>
      </trkpt>
      <trkpt lat="49.3240668" lon="-0.3715734">
        <ele>11.4</ele>
        <time>2022-05-04T15:05:31Z</time>
      </trkpt>
      <trkpt lat="49.3243115" lon="-0.3728823">
        <ele>10.2</ele>
        <time>2022-05-04T15:05:53Z</time>
      </trkpt>
      <trkpt lat="49.3246717" lon="-0.3741966">
        <ele>9.3</ele>
        <time>2022-05-04T15:06:16Z</time>
      </trkpt>
      <trkpt lat="49.3251017" lon="-0.3757308">
        <ele>8.7</ele>
        <time>2022-05-04T15:06:44Z</time>
      </trkpt>
      <trkpt lat="49.3246682" lon="-0.3759024">
        <ele>8.6</ele>
        <time>2022-05-04T15:06:55Z</time>
      </trkpt>
      <trkpt lat="49.324301" lon="-0.3760312">
        <ele>9.2</ele>
        <time>2022-05-04T15:07:04Z</time>
      </trkpt>
      <trkpt lat="49.3239689" lon="-0.3762136">
        <ele>9.6</ele>
        <time>2022-05-04T15:07:13Z</time>
      </trkpt>
      <trkpt lat="49.3228151" lon="-0.3766964">
        <ele>9.8</ele>
        <time>2022-05-04T15:07:43Z</time>
      </trkpt>
      <trkpt lat="49.3225493" lon="-0.3776781">
        <ele>9.7</ele>
        <time>2022-05-04T15:08:00Z</time>
      </trkpt>
      <trkpt lat="49.3223116" lon="-0.378177">
        <ele>9.2</ele>
        <time>2022-05-04T15:08:10Z</time>
      </trkpt>
      <trkpt lat="49.3218535" lon="-0.3790085">
        <ele>8.9</ele>
        <time>2022-05-04T15:08:27Z</time>
      </trkpt>
      <trkpt lat="49.3227766" lon="-0.3832464">
        <ele>9</ele>
        <time>2022-05-04T15:09:40Z</time>
      </trkpt>
      <trkpt lat="49.3236367" lon="-0.3885893">
        <ele>9.2</ele>
        <time>2022-05-04T15:11:09Z</time>
      </trkpt>
      <trkpt lat="49.3243605" lon="-0.3931705">
        <ele>9.3</ele>
        <time>2022-05-04T15:12:26Z</time>
      </trkpt>
      <trkpt lat="49.3248744" lon="-0.3962336">
        <ele>9</ele>
        <time>2022-05-04T15:13:18Z</time>
      </trkpt>
      <trkpt lat="49.3251157" lon="-0.3977571">
        <ele>8.8</ele>
        <time>2022-05-04T15:13:43Z</time>
      </trkpt>
      <trkpt lat="49.3256401" lon="-0.4004179">
        <ele>9.5</ele>
        <time>2022-05-04T15:14:28Z</time>
      </trkpt>
      <trkpt lat="49.3263533" lon="-0.4054819">
        <ele>9.6</ele>
        <time>2022-05-04T15:15:52Z</time>
      </trkpt>
      <trkpt lat="49.3272763" lon="-0.4103957">
        <ele>9</ele>
        <time>2022-05-04T15:17:15Z</time>
      </trkpt>
      <trkpt lat="49.327556" lon="-0.4134642">
        <ele>9.3</ele>
        <time>2022-05-04T15:18:06Z</time>
      </trkpt>
      <trkpt lat="49.3275456" lon="-0.4155884">
        <ele>10</ele>
        <time>2022-05-04T15:18:41Z</time>
      </trkpt>
      <trkpt lat="49.3275456" lon="-0.4185549">
        <ele>9.5</ele>
        <time>2022-05-04T15:19:29Z</time>
      </trkpt>
      <trkpt lat="49.32764" lon="-0.4208402">
        <ele>9</ele>
        <time>2022-05-04T15:20:06Z</time>
      </trkpt>
      <trkpt lat="49.3277484" lon="-0.4227285">
        <ele>9.3</ele>
        <time>2022-05-04T15:20:37Z</time>
      </trkpt>
      <trkpt lat="49.3276924" lon="-0.4236512">
        <ele>9.5</ele>
        <time>2022-05-04T15:20:52Z</time>
      </trkpt>
      <trkpt lat="49.3283322" lon="-0.4240052">
        <ele>9.5</ele>
        <time>2022-05-04T15:21:09Z</time>
      </trkpt>
      <trkpt lat="49.3285105" lon="-0.4241983">
        <ele>9.1</ele>
        <time>2022-05-04T15:21:15Z</time>
      </trkpt>
      <trkpt lat="49.3287028" lon="-0.4246114">
        <ele>8.4</ele>
        <time>2022-05-04T15:21:23Z</time>
      </trkpt>
      <trkpt lat="49.3287657" lon="-0.4248903">
        <ele>7.7</ele>
        <time>2022-05-04T15:21:27Z</time>
      </trkpt>
      <trkpt lat="49.328126" lon="-0.4250298">
        <ele>7.1</ele>
        <time>2022-05-04T15:21:43Z</time>
      </trkpt>
      <trkpt lat="49.3280158" lon="-0.4263146">
        <ele>7.3</ele>
        <time>2022-05-04T15:22:04Z</time>
      </trkpt>
      <trkpt lat="49.3274459" lon="-0.4280741">
        <ele>7.8</ele>
        <time>2022-05-04T15:22:35Z</time>
      </trkpt>
      <trkpt lat="49.3266575" lon="-0.4301153">
        <ele>7.7</ele>
        <time>2022-05-04T15:23:13Z</time>
      </trkpt>
      <trkpt lat="49.3265666" lon="-0.4312686">
        <ele>8.2</ele>
        <time>2022-05-04T15:23:31Z</time>
      </trkpt>
      <trkpt lat="49.3264267" lon="-0.4319445">
        <ele>9.2</ele>
        <time>2022-05-04T15:23:42Z</time>
      </trkpt>
      <trkpt lat="49.3267659" lon="-0.4368422">
        <ele>11.2</ele>
        <time>2022-05-04T15:25:01Z</time>
      </trkpt>
      <trkpt lat="49.3269337" lon="-0.4391007">
        <ele>14</ele>
        <time>2022-05-04T15:25:38Z</time>
      </trkpt>
      <trkpt lat="49.3270875" lon="-0.4420082">
        <ele>16.8</ele>
        <time>2022-05-04T15:26:26Z</time>
      </trkpt>
      <trkpt lat="49.3271889" lon="-0.4451034">
        <ele>18</ele>
        <time>2022-05-04T15:27:17Z</time>
      </trkpt>
      <trkpt lat="49.3274057" lon="-0.4491911">
        <ele>17.5</ele>
        <time>2022-05-04T15:28:24Z</time>
      </trkpt>
      <trkpt lat="49.3276015" lon="-0.4524902">
        <ele>17</ele>
        <time>2022-05-04T15:29:19Z</time>
      </trkpt>
      <trkpt lat="49.3276784" lon="-0.4544214">
        <ele>16.8</ele>
        <time>2022-05-04T15:29:51Z</time>
      </trkpt>
      <trkpt lat="49.3276889" lon="-0.4556231">
        <ele>16</ele>
        <time>2022-05-04T15:30:11Z</time>
      </trkpt>
      <trkpt lat="49.3280525" lon="-0.4556231">
        <ele>15</ele>
        <time>2022-05-04T15:30:20Z</time>
      </trkpt>
      <trkpt lat="49.3280874" lon="-0.4565243">
        <ele>14.8</ele>
        <time>2022-05-04T15:30:34Z</time>
      </trkpt>
      <trkpt lat="49.3272903" lon="-0.4566316">
        <ele>16</ele>
        <time>2022-05-04T15:30:54Z</time>
      </trkpt>
      <trkpt lat="49.3273602" lon="-0.4578869">
        <ele>17.3</ele>
        <time>2022-05-04T15:31:15Z</time>
      </trkpt>
      <trkpt lat="49.3278077" lon="-0.4609446">
        <ele>16.8</ele>
        <time>2022-05-04T15:32:05Z</time>
      </trkpt>
      <trkpt lat="49.3280018" lon="-0.4614113">
        <ele>15.5</ele>
        <time>2022-05-04T15:32:14Z</time>
      </trkpt>
      <trkpt lat="49.3279074" lon="-0.4616178">
        <ele>15</ele>
        <time>2022-05-04T15:32:18Z</time>
      </trkpt>
      <trkpt lat="49.3277186" lon="-0.4616849">
        <ele>14.3</ele>
        <time>2022-05-04T15:32:22Z</time>
      </trkpt>
      <trkpt lat="49.3270544" lon="-0.4623957">
        <ele>17.8</ele>
        <time>2022-05-04T15:32:42Z</time>
      </trkpt>
      <trkpt lat="49.326016" lon="-0.4636992">
        <ele>21.5</ele>
        <time>2022-05-04T15:33:15Z</time>
      </trkpt>
      <trkpt lat="49.3259373" lon="-0.4640613">
        <ele>13.6</ele>
        <time>2022-05-04T15:33:22Z</time>
      </trkpt>
      <trkpt lat="49.3260247" lon="-0.4663627">
        <ele>11.7</ele>
        <time>2022-05-04T15:34:00Z</time>
      </trkpt>
      <trkpt lat="49.3260527" lon="-0.4678245">
        <ele>17.5</ele>
        <time>2022-05-04T15:34:25Z</time>
      </trkpt>
      <trkpt lat="49.3264303" lon="-0.4689134">
        <ele>11.2</ele>
        <time>2022-05-04T15:34:45Z</time>
      </trkpt>
      <trkpt lat="49.3268533" lon="-0.4700105">
        <ele>5.6</ele>
        <time>2022-05-04T15:35:05Z</time>
      </trkpt>
      <trkpt lat="49.3268551" lon="-0.4703994">
        <ele>12.7</ele>
        <time>2022-05-04T15:35:13Z</time>
      </trkpt>
      <trkpt lat="49.3267764" lon="-0.4706274">
        <ele>19.9</ele>
        <time>2022-05-04T15:35:19Z</time>
      </trkpt>
      <trkpt lat="49.3260929" lon="-0.4718236">
        <ele>16.8</ele>
        <time>2022-05-04T15:35:49Z</time>
      </trkpt>
      <trkpt lat="49.3257083" lon="-0.4724352">
        <ele>12.3</ele>
        <time>2022-05-04T15:36:05Z</time>
      </trkpt>
      <trkpt lat="49.3254706" lon="-0.4729019">
        <ele>15.5</ele>
        <time>2022-05-04T15:36:17Z</time>
      </trkpt>
      <trkpt lat="49.3246297" lon="-0.4749404">
        <ele>20.5</ele>
        <time>2022-05-04T15:37:01Z</time>
      </trkpt>
      <trkpt lat="49.3241926" lon="-0.4754795">
        <ele>20</ele>
        <time>2022-05-04T15:37:17Z</time>
      </trkpt>
      <trkpt lat="49.323586" lon="-0.4761232">
        <ele>19.3</ele>
        <time>2022-05-04T15:37:37Z</time>
      </trkpt>
      <trkpt lat="49.3231892" lon="-0.4765336">
        <ele>22</ele>
        <time>2022-05-04T15:37:51Z</time>
      </trkpt>
      <trkpt lat="49.3224147" lon="-0.477062">
        <ele>25</ele>
        <time>2022-05-04T15:38:16Z</time>
      </trkpt>
      <trkpt lat="49.3218989" lon="-0.4774563">
        <ele>27.8</ele>
        <time>2022-05-04T15:38:32Z</time>
      </trkpt>
      <trkpt lat="49.3208604" lon="-0.4786069">
        <ele>30</ele>
        <time>2022-05-04T15:39:05Z</time>
      </trkpt>
      <trkpt lat="49.3202101" lon="-0.4793365">
        <ele>28.3</ele>
        <time>2022-05-04T15:39:26Z</time>
      </trkpt>
      <trkpt lat="49.3199303" lon="-0.4796476">
        <ele>27</ele>
        <time>2022-05-04T15:39:34Z</time>
      </trkpt>
      <trkpt lat="49.3178462" lon="-0.4819114">
        <ele>35</ele>
        <time>2022-05-04T15:40:39Z</time>
      </trkpt>
      <trkpt lat="49.3154893" lon="-0.4845399">
        <ele>38</ele>
        <time>2022-05-04T15:41:53Z</time>
      </trkpt>
      <trkpt lat="49.3127213" lon="-0.487646">
        <ele>35.3</ele>
        <time>2022-05-04T15:43:19Z</time>
      </trkpt>
      <trkpt lat="49.3113784" lon="-0.4891883">
        <ele>43</ele>
        <time>2022-05-04T15:44:02Z</time>
      </trkpt>
      <trkpt lat="49.3116861" lon="-0.4901485">
        <ele>44</ele>
        <time>2022-05-04T15:44:20Z</time>
      </trkpt>
      <trkpt lat="49.3125709" lon="-0.4925035">
        <ele>44.8</ele>
        <time>2022-05-04T15:45:04Z</time>
      </trkpt>
      <trkpt lat="49.3125255" lon="-0.492879">
        <ele>45.5</ele>
        <time>2022-05-04T15:45:11Z</time>
      </trkpt>
      <trkpt lat="49.3126059" lon="-0.4940377">
        <ele>45.8</ele>
        <time>2022-05-04T15:45:30Z</time>
      </trkpt>
      <trkpt lat="49.3122562" lon="-0.4960225">
        <ele>45.8</ele>
        <time>2022-05-04T15:46:04Z</time>
      </trkpt>
      <trkpt lat="49.3118295" lon="-0.4979644">
        <ele>45.3</ele>
        <time>2022-05-04T15:46:38Z</time>
      </trkpt>
      <trkpt lat="49.3114588" lon="-0.5000566">
        <ele>45.5</ele>
        <time>2022-05-04T15:47:13Z</time>
      </trkpt>
      <trkpt lat="49.3112804" lon="-0.5010919">
        <ele>47</ele>
        <time>2022-05-04T15:47:31Z</time>
      </trkpt>
      <trkpt lat="49.311242" lon="-0.5026315">
        <ele>48.8</ele>
        <time>2022-05-04T15:47:57Z</time>
      </trkpt>
      <trkpt lat="49.3113434" lon="-0.504391">
        <ele>50</ele>
        <time>2022-05-04T15:48:26Z</time>
      </trkpt>
      <trkpt lat="49.3117316" lon="-0.5069659">
        <ele>50.8</ele>
        <time>2022-05-04T15:49:10Z</time>
      </trkpt>
      <trkpt lat="49.311889" lon="-0.5076901">
        <ele>51</ele>
        <time>2022-05-04T15:49:23Z</time>
      </trkpt>
      <trkpt lat="49.3122527" lon="-0.5086665">
        <ele>50.8</ele>
        <time>2022-05-04T15:49:41Z</time>
      </trkpt>
      <trkpt lat="49.3125814" lon="-0.5090581">
        <ele>50.3</ele>
        <time>2022-05-04T15:49:52Z</time>
      </trkpt>
      <trkpt lat="49.313078" lon="-0.5099593">
        <ele>50</ele>
        <time>2022-05-04T15:50:11Z</time>
      </trkpt>
      <trkpt lat="49.3133193" lon="-0.5107961">
        <ele>50</ele>
        <time>2022-05-04T15:50:26Z</time>
      </trkpt>
      <trkpt lat="49.3132914" lon="-0.5110858">
        <ele>50.3</ele>
        <time>2022-05-04T15:50:31Z</time>
      </trkpt>
      <trkpt lat="49.3128263" lon="-0.5117403">
        <ele>50.8</ele>
        <time>2022-05-04T15:50:47Z</time>
      </trkpt>
      <trkpt lat="49.3126794" lon="-0.512089">
        <ele>51</ele>
        <time>2022-05-04T15:50:53Z</time>
      </trkpt>
      <trkpt lat="49.3125185" lon="-0.5126147">
        <ele>51.3</ele>
        <time>2022-05-04T15:51:03Z</time>
      </trkpt>
      <trkpt lat="49.3123052" lon="-0.5134193">
        <ele>51.5</ele>
        <time>2022-05-04T15:51:17Z</time>
      </trkpt>
      <trkpt lat="49.3121093" lon="-0.514503">
        <ele>51.5</ele>
        <time>2022-05-04T15:51:36Z</time>
      </trkpt>
      <trkpt lat="49.3120499" lon="-0.5202161">
        <ele>51.8</ele>
        <time>2022-05-04T15:53:09Z</time>
      </trkpt>
      <trkpt lat="49.3126234" lon="-0.5250655">
        <ele>51.8</ele>
        <time>2022-05-04T15:54:30Z</time>
      </trkpt>
      <trkpt lat="49.3138824" lon="-0.5303441">
        <ele>51.3</ele>
        <time>2022-05-04T15:56:02Z</time>
      </trkpt>
      <trkpt lat="49.3136446" lon="-0.5332838">
        <ele>51</ele>
        <time>2022-05-04T15:56:51Z</time>
      </trkpt>
      <trkpt lat="49.313197" lon="-0.5356656">
        <ele>51</ele>
        <time>2022-05-04T15:57:31Z</time>
      </trkpt>
      <trkpt lat="49.3132355" lon="-0.5360652">
        <ele>50.8</ele>
        <time>2022-05-04T15:57:38Z</time>
      </trkpt>
      <trkpt lat="49.3134978" lon="-0.53735">
        <ele>50.3</ele>
        <time>2022-05-04T15:58:00Z</time>
      </trkpt>
      <trkpt lat="49.313816" lon="-0.5386455">
        <ele>50</ele>
        <time>2022-05-04T15:58:22Z</time>
      </trkpt>
      <trkpt lat="49.3142217" lon="-0.5398391">
        <ele>50</ele>
        <time>2022-05-04T15:58:44Z</time>
      </trkpt>
      <trkpt lat="49.3148896" lon="-0.5416952">
        <ele>49</ele>
        <time>2022-05-04T15:59:18Z</time>
      </trkpt>
      <trkpt lat="49.3150505" lon="-0.5452545">
        <ele>47.3</ele>
        <time>2022-05-04T16:00:16Z</time>
      </trkpt>
      <trkpt lat="49.3150085" lon="-0.5456219">
        <ele>46.8</ele>
        <time>2022-05-04T16:00:22Z</time>
      </trkpt>
      <trkpt lat="49.314386" lon="-0.546609">
        <ele>46.8</ele>
        <time>2022-05-04T16:00:44Z</time>
      </trkpt>
      <trkpt lat="49.314678" lon="-0.5478348">
        <ele>46.5</ele>
        <time>2022-05-04T16:01:05Z</time>
      </trkpt>
      <trkpt lat="49.3148598" lon="-0.5481674">
        <ele>46.5</ele>
        <time>2022-05-04T16:01:12Z</time>
      </trkpt>
      <trkpt lat="49.3149175" lon="-0.5484276">
        <ele>46.3</ele>
        <time>2022-05-04T16:01:16Z</time>
      </trkpt>
      <trkpt lat="49.3149071" lon="-0.5486287">
        <ele>46</ele>
        <time>2022-05-04T16:01:19Z</time>
      </trkpt>
      <trkpt lat="49.3150575" lon="-0.549326">
        <ele>46.3</ele>
        <time>2022-05-04T16:01:31Z</time>
      </trkpt>
      <trkpt lat="49.3150418" lon="-0.5496425">
        <ele>46.8</ele>
        <time>2022-05-04T16:01:36Z</time>
      </trkpt>
      <trkpt lat="49.3149806" lon="-0.549731">
        <ele>47.3</ele>
        <time>2022-05-04T16:01:38Z</time>
      </trkpt>
      <trkpt lat="49.3148931" lon="-0.5500422">
        <ele>48</ele>
        <time>2022-05-04T16:01:44Z</time>
      </trkpt>
      <trkpt lat="49.3148686" lon="-0.5504848">
        <ele>49</ele>
        <time>2022-05-04T16:01:51Z</time>
      </trkpt>
      <trkpt lat="49.314998" lon="-0.5512251">
        <ele>50</ele>
        <time>2022-05-04T16:02:04Z</time>
      </trkpt>
      <trkpt lat="49.3150767" lon="-0.5520726">
        <ele>50.5</ele>
        <time>2022-05-04T16:02:18Z</time>
      </trkpt>
      <trkpt lat="49.3150767" lon="-0.5524482">
        <ele>50.8</ele>
        <time>2022-05-04T16:02:24Z</time>
      </trkpt>
      <trkpt lat="49.3150435" lon="-0.5528532">
        <ele>51.3</ele>
        <time>2022-05-04T16:02:31Z</time>
      </trkpt>
      <trkpt lat="49.3142881" lon="-0.5574022">
        <ele>52.3</ele>
        <time>2022-05-04T16:03:51Z</time>
      </trkpt>
      <trkpt lat="49.3141902" lon="-0.5630027">
        <ele>54.3</ele>
        <time>2022-05-04T16:05:26Z</time>
      </trkpt>
      <trkpt lat="49.3141902" lon="-0.5658458">
        <ele>56</ele>
        <time>2022-05-04T16:06:14Z</time>
      </trkpt>
      <trkpt lat="49.31415" lon="-0.5672406">
        <ele>56.5</ele>
        <time>2022-05-04T16:06:37Z</time>
      </trkpt>
      <trkpt lat="49.3139664" lon="-0.5687104">
        <ele>56.3</ele>
        <time>2022-05-04T16:07:02Z</time>
      </trkpt>
      <trkpt lat="49.3137548" lon="-0.5698128">
        <ele>56</ele>
        <time>2022-05-04T16:07:21Z</time>
      </trkpt>
      <trkpt lat="49.3134768" lon="-0.5707596">
        <ele>56.5</ele>
        <time>2022-05-04T16:07:38Z</time>
      </trkpt>
      <trkpt lat="49.3124836" lon="-0.5730663">
        <ele>57</ele>
        <time>2022-05-04T16:08:23Z</time>
      </trkpt>
      <trkpt lat="49.3118068" lon="-0.5752013">
        <ele>57.3</ele>
        <time>2022-05-04T16:09:02Z</time>
      </trkpt>
      <trkpt lat="49.3111966" lon="-0.5775939">
        <ele>57.8</ele>
        <time>2022-05-04T16:09:45Z</time>
      </trkpt>
      <trkpt lat="49.3107909" lon="-0.5799328">
        <ele>58.5</ele>
        <time>2022-05-04T16:10:24Z</time>
      </trkpt>
      <trkpt lat="49.3079509" lon="-0.5870138">
        <ele>59.8</ele>
        <time>2022-05-04T16:12:41Z</time>
      </trkpt>
      <trkpt lat="49.3073773" lon="-0.5899106">
        <ele>60.3</ele>
        <time>2022-05-04T16:13:30Z</time>
      </trkpt>
      <trkpt lat="49.3068877" lon="-0.5929146">
        <ele>59.8</ele>
        <time>2022-05-04T16:14:21Z</time>
      </trkpt>
      <trkpt lat="49.3056005" lon="-0.5959402">
        <ele>59.3</ele>
        <time>2022-05-04T16:15:20Z</time>
      </trkpt>
      <trkpt lat="49.3051808" lon="-0.5966912">
        <ele>58.8</ele>
        <time>2022-05-04T16:15:36Z</time>
      </trkpt>
      <trkpt lat="49.3044672" lon="-0.5990515">
        <ele>58.3</ele>
        <time>2022-05-04T16:16:18Z</time>
      </trkpt>
      <trkpt lat="49.30318" lon="-0.6007467">
        <ele>57.3</ele>
        <time>2022-05-04T16:17:00Z</time>
      </trkpt>
      <trkpt lat="49.3023685" lon="-0.6035147">
        <ele>53.3</ele>
        <time>2022-05-04T16:17:49Z</time>
      </trkpt>
      <trkpt lat="49.3018648" lon="-0.6055747">
        <ele>43.8</ele>
        <time>2022-05-04T16:18:23Z</time>
      </trkpt>
      <trkpt lat="49.3016129" lon="-0.6104456">
        <ele>32.5</ele>
        <time>2022-05-04T16:19:39Z</time>
      </trkpt>
      <trkpt lat="49.3013471" lon="-0.6131063">
        <ele>26.8</ele>
        <time>2022-05-04T16:20:20Z</time>
      </trkpt>
      <trkpt lat="49.3005215" lon="-0.6153808">
        <ele>27.8</ele>
        <time>2022-05-04T16:21:00Z</time>
      </trkpt>
      <trkpt lat="49.2997799" lon="-0.6186424">
        <ele>31.3</ele>
        <time>2022-05-04T16:21:54Z</time>
      </trkpt>
      <trkpt lat="49.2993742" lon="-0.6200801">
        <ele>33.5</ele>
        <time>2022-05-04T16:22:18Z</time>
      </trkpt>
      <trkpt lat="49.2983107" lon="-0.6225262">
        <ele>35.3</ele>
        <time>2022-05-04T16:23:04Z</time>
      </trkpt>
      <trkpt lat="49.2962677" lon="-0.6323538">
        <ele>38</ele>
        <time>2022-05-04T16:25:46Z</time>
      </trkpt>
      <trkpt lat="49.2961557" lon="-0.6342207">
        <ele>41.5</ele>
        <time>2022-05-04T16:26:16Z</time>
      </trkpt>
      <trkpt lat="49.2948823" lon="-0.6427608">
        <ele>47</ele>
        <time>2022-05-04T16:28:35Z</time>
      </trkpt>
      <trkpt lat="49.2934129" lon="-0.646194">
        <ele>54.5</ele>
        <time>2022-05-04T16:29:42Z</time>
      </trkpt>
      <trkpt lat="49.2915096" lon="-0.6519018">
        <ele>60.8</ele>
        <time>2022-05-04T16:31:28Z</time>
      </trkpt>
      <trkpt lat="49.2912437" lon="-0.6527709">
        <ele>60.5</ele>
        <time>2022-05-04T16:31:44Z</time>
      </trkpt>
      <trkpt lat="49.2909008" lon="-0.6538759">
        <ele>64</ele>
        <time>2022-05-04T16:32:05Z</time>
      </trkpt>
      <trkpt lat="49.2895363" lon="-0.6569014">
        <ele>58.5</ele>
        <time>2022-05-04T16:33:05Z</time>
      </trkpt>
      <trkpt lat="49.2877869" lon="-0.6619869">
        <ele>58.8</ele>
        <time>2022-05-04T16:34:40Z</time>
      </trkpt>
      <trkpt lat="49.2856595" lon="-0.6700765">
        <ele>55.5</ele>
        <time>2022-05-04T16:37:04Z</time>
      </trkpt>
      <trkpt lat="49.2854355" lon="-0.6722222">
        <ele>52.3</ele>
        <time>2022-05-04T16:37:39Z</time>
      </trkpt>
      <trkpt lat="49.2850996" lon="-0.6761061">
        <ele>52</ele>
        <time>2022-05-04T16:38:43Z</time>
      </trkpt>
      <trkpt lat="49.2842178" lon="-0.6800114">
        <ele>52.8</ele>
        <time>2022-05-04T16:39:50Z</time>
      </trkpt>
      <trkpt lat="49.2841478" lon="-0.6811486">
        <ele>55</ele>
        <time>2022-05-04T16:40:09Z</time>
      </trkpt>
      <trkpt lat="49.2823002" lon="-0.6850968">
        <ele>57.5</ele>
        <time>2022-05-04T16:41:28Z</time>
      </trkpt>
      <trkpt lat="49.2817962" lon="-0.6864487">
        <ele>58.8</ele>
        <time>2022-05-04T16:41:54Z</time>
      </trkpt>
      <trkpt lat="49.2807044" lon="-0.6900536">
        <ele>58.5</ele>
        <time>2022-05-04T16:42:58Z</time>
      </trkpt>
      <trkpt lat="49.2806414" lon="-0.6914161">
        <ele>56.5</ele>
        <time>2022-05-04T16:43:20Z</time>
      </trkpt>
      <trkpt lat="49.2806834" lon="-0.6919847">
        <ele>54.3</ele>
        <time>2022-05-04T16:43:29Z</time>
      </trkpt>
      <trkpt lat="49.2808304" lon="-0.6924997">
        <ele>53.5</ele>
        <time>2022-05-04T16:43:38Z</time>
      </trkpt>
      <trkpt lat="49.2796266" lon="-0.6941949">
        <ele>52.3</ele>
        <time>2022-05-04T16:44:17Z</time>
      </trkpt>
      <trkpt lat="49.2784507" lon="-0.695654">
        <ele>48.8</ele>
        <time>2022-05-04T16:44:54Z</time>
      </trkpt>
      <trkpt lat="49.2774568" lon="-0.6967913">
        <ele>46.5</ele>
        <time>2022-05-04T16:45:23Z</time>
      </trkpt>
      <trkpt lat="49.2759309" lon="-0.6981431">
        <ele>45.8</ele>
        <time>2022-05-04T16:46:05Z</time>
      </trkpt>
      <trkpt lat="49.2768128" lon="-0.7011901">
        <ele>44</ele>
        <time>2022-05-04T16:46:57Z</time>
      </trkpt>
    </trkseg>
  </trk>
</gpx>
